createdAt,value
2018-12-14T00:02:05.592Z,1.70
2018-12-14T00:04:34.114Z,1.70
2018-12-14T00:07:02.680Z,1.70
2018-12-14T00:09:31.146Z,1.70
2018-12-14T00:11:59.612Z,1.70
2018-12-14T00:14:28.052Z,1.60
2018-12-14T00:16:56.456Z,1.60
2018-12-14T00:19:24.975Z,1.60
2018-12-14T00:21:53.404Z,1.60
2018-12-14T00:24:21.828Z,1.50
2018-12-14T00:26:50.279Z,1.50
2018-12-14T00:29:18.786Z,1.50
2018-12-14T00:31:47.251Z,1.40
2018-12-14T00:34:15.686Z,1.40
2018-12-14T00:36:44.157Z,1.40
2018-12-14T00:39:12.581Z,1.30
2018-12-14T00:41:41.039Z,1.30
2018-12-14T00:44:09.511Z,1.30
2018-12-14T00:46:42.309Z,1.20
2018-12-14T00:49:10.737Z,1.20
2018-12-14T00:51:39.175Z,1.20
2018-12-14T00:54:07.783Z,1.10
2018-12-14T00:56:36.287Z,1.20
2018-12-14T00:59:04.731Z,1.20
2018-12-14T01:01:33.176Z,1.20
2018-12-14T01:04:01.673Z,1.20
2018-12-14T01:06:30.099Z,1.20
2018-12-14T01:08:58.539Z,1.30
2018-12-14T01:11:27.034Z,1.30
2018-12-14T01:13:55.497Z,1.40
2018-12-14T01:16:23.988Z,1.40
2018-12-14T01:18:52.441Z,1.40
2018-12-14T01:21:20.851Z,1.40
2018-12-14T01:23:49.306Z,1.40
2018-12-14T01:26:18.346Z,1.30
2018-12-14T01:28:46.866Z,1.30
2018-12-14T01:31:15.391Z,1.20
2018-12-14T01:33:43.816Z,1.10
2018-12-14T01:36:12.294Z,1.10
2018-12-14T01:38:40.708Z,1.10
2018-12-14T01:41:09.132Z,1.00
2018-12-14T01:43:37.596Z,1.00
2018-12-14T01:46:06.134Z,0.90
2018-12-14T01:48:34.626Z,0.90
2018-12-14T01:51:03.085Z,0.90
2018-12-14T01:53:31.599Z,0.90
2018-12-14T01:56:00.002Z,0.90
2018-12-14T01:58:28.437Z,0.90
2018-12-14T02:00:56.887Z,0.80
2018-12-14T02:03:25.303Z,0.80
2018-12-14T02:05:53.708Z,0.80
2018-12-14T02:08:22.247Z,0.70
2018-12-14T02:10:50.759Z,0.70
2018-12-14T02:13:19.191Z,0.70
2018-12-14T02:15:47.681Z,0.70
2018-12-14T02:18:16.144Z,0.70
2018-12-14T02:20:44.553Z,0.60
2018-12-14T02:23:13.059Z,0.60
2018-12-14T02:25:41.577Z,0.60
2018-12-14T02:28:10.001Z,0.60
2018-12-14T02:30:42.110Z,0.60
2018-12-14T02:33:10.599Z,0.60
2018-12-14T02:35:39.057Z,0.60
2018-12-14T02:38:07.611Z,0.60
2018-12-14T02:40:36.067Z,0.50
2018-12-14T02:43:04.501Z,0.50
2018-12-14T02:45:32.959Z,0.50
2018-12-14T02:48:01.400Z,0.50
2018-12-14T02:50:29.981Z,0.50
2018-12-14T02:52:58.420Z,0.50
2018-12-14T02:55:26.835Z,0.50
2018-12-14T02:57:55.259Z,0.40
2018-12-14T03:00:23.697Z,0.50
2018-12-14T03:02:52.150Z,0.40
2018-12-14T03:05:20.667Z,0.40
2018-12-14T03:07:49.134Z,0.40
2018-12-14T03:10:17.768Z,0.40
2018-12-14T03:12:46.266Z,0.40
2018-12-14T03:15:14.732Z,0.40
2018-12-14T03:17:43.138Z,0.40
2018-12-14T03:20:11.626Z,0.30
2018-12-14T03:22:40.202Z,0.30
2018-12-14T03:25:08.633Z,0.30
2018-12-14T03:27:37.051Z,0.30
2018-12-14T03:30:07.910Z,0.30
2018-12-14T03:32:36.384Z,0.30
2018-12-14T03:35:05.271Z,0.30
2018-12-14T03:37:33.721Z,0.30
2018-12-14T03:40:02.170Z,0.40
2018-12-14T03:42:34.308Z,0.30
2018-12-14T03:45:01.128Z,0.30
2018-12-14T03:47:29.540Z,0.30
2018-12-14T03:49:57.978Z,0.30
2018-12-14T03:52:26.495Z,0.20
2018-12-14T03:54:54.938Z,0.20
2018-12-14T03:57:23.359Z,0.20
2018-12-14T03:59:51.956Z,0.20
2018-12-14T04:02:20.385Z,0.20
2018-12-14T04:04:48.901Z,0.20
2018-12-14T04:07:17.358Z,0.20
2018-12-14T04:09:45.838Z,0.20
2018-12-14T04:12:14.279Z,0.20
2018-12-14T04:14:42.745Z,0.20
2018-12-14T04:17:11.203Z,0.20
2018-12-14T04:19:39.679Z,0.20
2018-12-14T04:22:08.173Z,0.20
2018-12-14T04:24:36.601Z,0.20
2018-12-14T04:27:05.027Z,0.20
2018-12-14T04:29:33.511Z,0.20
2018-12-14T04:32:01.941Z,0.20
2018-12-14T04:34:30.403Z,0.20
2018-12-14T04:36:58.876Z,0.20
2018-12-14T04:39:27.391Z,0.20
2018-12-14T04:41:55.805Z,0.20
2018-12-14T04:44:24.251Z,0.30
2018-12-14T04:46:52.721Z,0.20
2018-12-14T04:49:21.138Z,0.20
2018-12-14T04:51:49.657Z,0.20
2018-12-14T04:54:18.114Z,0.20
2018-12-14T04:56:46.556Z,0.20
2018-12-14T04:59:15.058Z,0.20
2018-12-14T05:01:43.574Z,0.20
2018-12-14T05:04:12.127Z,0.20
2018-12-14T05:06:40.582Z,0.20
2018-12-14T05:09:08.988Z,0.20
2018-12-14T05:11:37.430Z,0.20
2018-12-14T05:14:05.939Z,0.20
2018-12-14T05:16:34.332Z,0.30
2018-12-14T05:19:02.894Z,0.20
2018-12-14T05:21:31.316Z,0.20
2018-12-14T05:23:59.788Z,0.20
2018-12-14T05:26:28.998Z,0.20
2018-12-14T05:28:57.754Z,0.20
2018-12-14T05:31:26.186Z,0.20
2018-12-14T05:33:54.748Z,0.20
2018-12-14T05:36:23.263Z,0.20
2018-12-14T05:38:51.737Z,0.30
2018-12-14T05:41:20.198Z,0.20
2018-12-14T05:43:48.727Z,0.20
2018-12-14T05:46:17.130Z,0.20
2018-12-14T05:48:45.611Z,0.20
2018-12-14T05:51:14.183Z,0.20
2018-12-14T05:53:42.636Z,0.20
2018-12-14T05:56:11.093Z,0.20
2018-12-14T05:58:40.232Z,0.20
2018-12-14T06:01:08.675Z,0.20
2018-12-14T06:03:37.151Z,0.20
2018-12-14T06:06:05.617Z,0.20
2018-12-14T06:08:34.035Z,0.20
2018-12-14T06:11:02.481Z,0.20
2018-12-14T06:13:30.962Z,0.20
2018-12-14T06:15:59.401Z,0.20
2018-12-14T06:18:27.801Z,0.20
2018-12-14T06:20:56.311Z,0.20
2018-12-14T06:23:24.741Z,0.20
2018-12-14T06:25:53.186Z,0.20
2018-12-14T06:28:21.618Z,0.20
2018-12-14T06:30:50.068Z,0.20
2018-12-14T06:33:18.486Z,0.20
2018-12-14T06:35:48.298Z,0.20
2018-12-14T06:40:50.698Z,0.30
2018-12-14T06:43:19.171Z,0.20
2018-12-14T06:45:47.592Z,0.20
2018-12-14T06:48:18.758Z,0.30
2018-12-14T06:50:47.686Z,0.30
2018-12-14T06:53:16.369Z,0.40
2018-12-14T06:55:44.832Z,0.40
2018-12-14T06:58:13.286Z,0.40
2018-12-14T07:00:41.728Z,0.40
2018-12-14T07:03:10.186Z,0.40
2018-12-14T07:05:38.612Z,0.40
2018-12-14T07:08:07.054Z,0.40
2018-12-14T07:10:35.506Z,0.40
2018-12-14T07:13:03.969Z,0.30
2018-12-14T07:15:32.450Z,0.30
2018-12-14T07:18:00.926Z,0.30
2018-12-14T07:20:29.551Z,0.30
2018-12-14T07:22:58.007Z,0.20
2018-12-14T07:25:26.532Z,0.20
2018-12-14T07:27:55.530Z,0.20
2018-12-14T07:30:23.954Z,0.20
2018-12-14T07:32:52.618Z,0.20
2018-12-14T07:35:21.330Z,0.30
2018-12-14T07:37:50.035Z,0.20
2018-12-14T07:40:18.636Z,0.20
2018-12-14T07:42:47.071Z,0.20
2018-12-14T07:45:15.519Z,0.20
2018-12-14T07:47:43.969Z,0.20
2018-12-14T07:50:12.475Z,0.30
2018-12-14T07:52:40.933Z,0.30
2018-12-14T07:55:09.389Z,0.30
2018-12-14T07:57:37.813Z,0.30
2018-12-14T08:00:07.954Z,0.30
2018-12-14T08:02:36.576Z,0.20
2018-12-14T08:05:06.189Z,0.20
2018-12-14T08:07:34.631Z,0.20
2018-12-14T08:10:03.228Z,0.30
2018-12-14T08:12:31.713Z,0.30
2018-12-14T08:15:00.130Z,0.30
2018-12-14T08:17:28.596Z,0.30
2018-12-14T08:19:57.081Z,0.30
2018-12-14T08:22:25.613Z,0.30
2018-12-14T08:24:54.148Z,0.30
2018-12-14T08:27:22.616Z,0.30
2018-12-14T08:29:51.916Z,0.30
2018-12-14T08:32:20.470Z,0.30
2018-12-14T08:34:51.220Z,0.40
2018-12-14T08:37:19.443Z,0.40
2018-12-14T08:39:47.959Z,0.40
2018-12-14T08:42:16.446Z,0.40
2018-12-14T08:44:44.939Z,0.40
2018-12-14T08:47:13.461Z,0.40
2018-12-14T08:49:41.886Z,0.40
2018-12-14T08:52:10.442Z,0.50
2018-12-14T08:54:38.921Z,0.50
2018-12-14T08:57:07.353Z,0.50
2018-12-14T08:59:35.788Z,0.50
2018-12-14T09:02:04.302Z,0.60
2018-12-14T09:04:32.747Z,0.60
2018-12-14T09:07:01.182Z,0.60
2018-12-14T09:09:29.662Z,0.60
2018-12-14T09:11:58.322Z,0.50
2018-12-14T09:14:26.800Z,0.50
2018-12-14T09:16:56.110Z,0.60
2018-12-14T09:19:24.552Z,0.70
2018-12-14T09:21:53.078Z,0.70
2018-12-14T09:24:21.549Z,0.70
2018-12-14T09:26:49.990Z,0.80
2018-12-14T09:29:18.757Z,0.90
2018-12-14T09:31:47.548Z,0.90
2018-12-14T09:34:15.998Z,0.90
2018-12-14T09:36:44.422Z,0.90
2018-12-14T09:39:12.966Z,0.90
2018-12-14T09:41:41.419Z,0.90
2018-12-14T09:44:09.851Z,1.00
2018-12-14T09:46:38.389Z,1.00
2018-12-14T09:49:06.853Z,1.00
2018-12-14T09:51:35.352Z,1.10
2018-12-14T09:54:03.827Z,1.10
2018-12-14T09:56:32.296Z,1.20
2018-12-14T09:59:06.743Z,1.20
2018-12-14T10:01:35.491Z,1.10
2018-12-14T10:04:04.018Z,1.20
2018-12-14T10:06:32.592Z,1.20
2018-12-14T10:09:02.421Z,1.30
2018-12-14T10:11:30.945Z,1.30
2018-12-14T10:14:00.972Z,1.20
2018-12-14T10:16:29.794Z,1.20
2018-12-14T10:18:58.805Z,1.20
2018-12-14T10:21:27.368Z,1.20
2018-12-14T10:23:55.937Z,1.10
2018-12-14T10:26:24.435Z,1.10
2018-12-14T10:28:53.797Z,1.10
2018-12-14T10:31:22.411Z,1.10
2018-12-14T10:33:50.973Z,1.10
2018-12-14T10:36:19.515Z,1.20
2018-12-14T10:38:47.987Z,1.20
2018-12-14T10:41:17.933Z,1.30
2018-12-14T10:43:46.369Z,1.40
2018-12-14T10:46:14.843Z,1.40
2018-12-14T10:48:43.359Z,1.50
2018-12-14T10:51:11.825Z,1.40
2018-12-14T10:53:40.338Z,1.40
2018-12-14T10:56:08.762Z,1.40
2018-12-14T10:58:37.235Z,1.40
2018-12-14T11:01:14.411Z,1.40
2018-12-14T11:03:41.398Z,1.50
2018-12-14T11:06:09.896Z,1.50
2018-12-14T11:08:38.316Z,1.40
2018-12-14T11:11:07.002Z,1.50
2018-12-14T11:13:35.437Z,1.40
2018-12-14T11:16:03.892Z,1.40
2018-12-14T11:18:32.371Z,1.40
2018-12-14T11:21:00.896Z,1.40
2018-12-14T11:23:29.330Z,1.30
2018-12-14T11:25:57.806Z,1.30
2018-12-14T11:28:26.248Z,1.40
2018-12-14T11:30:54.737Z,1.50
2018-12-14T11:33:23.196Z,1.50
2018-12-14T11:35:51.578Z,1.50
2018-12-14T11:38:20.042Z,1.50
2018-12-14T11:40:48.552Z,1.50
2018-12-14T11:43:16.982Z,1.60
2018-12-14T11:45:45.396Z,1.70
2018-12-14T11:48:13.978Z,1.80
2018-12-14T11:50:42.466Z,1.80
2018-12-14T11:53:12.889Z,1.70
2018-12-14T11:55:41.309Z,1.70
2018-12-14T11:58:09.785Z,1.70
2018-12-14T12:00:38.255Z,1.70
2018-12-14T12:03:06.694Z,1.80
2018-12-14T12:05:35.133Z,1.90
2018-12-14T12:08:03.899Z,2.10
2018-12-14T12:10:32.343Z,2.30
2018-12-14T12:13:00.734Z,2.20
2018-12-14T12:15:29.185Z,2.20
2018-12-14T12:17:57.647Z,2.20
2018-12-14T12:20:26.131Z,2.20
2018-12-14T12:22:54.565Z,2.20
2018-12-14T12:25:23.103Z,2.40
2018-12-14T12:27:51.531Z,2.30
2018-12-14T12:30:19.974Z,2.30
2018-12-14T12:32:48.446Z,2.40
2018-12-14T12:35:16.860Z,2.60
2018-12-14T12:37:45.320Z,2.50
2018-12-14T12:40:13.941Z,2.40
2018-12-14T12:42:42.477Z,2.50
2018-12-14T12:45:10.905Z,2.50
2018-12-14T12:47:39.392Z,2.60
2018-12-14T12:50:08.043Z,2.70
2018-12-14T12:52:36.555Z,2.60
2018-12-14T12:55:05.215Z,2.50
2018-12-14T12:57:33.679Z,2.40
2018-12-14T13:00:02.115Z,2.40
2018-12-14T13:02:30.567Z,2.40
2018-12-14T13:04:59.820Z,2.50
2018-12-14T13:07:28.255Z,2.50
2018-12-14T13:09:56.789Z,2.60
2018-12-14T13:12:25.262Z,2.60
2018-12-14T13:14:53.750Z,2.60
2018-12-14T13:17:22.169Z,2.70
2018-12-14T13:19:51.370Z,2.80
2018-12-14T13:22:20.016Z,2.70
2018-12-14T13:24:48.489Z,2.60
2018-12-14T13:27:20.255Z,2.50
2018-12-14T13:29:47.598Z,2.50
2018-12-14T13:32:16.164Z,2.50
2018-12-14T13:34:44.566Z,2.50
2018-12-14T13:37:12.986Z,2.60
2018-12-14T13:39:41.512Z,2.70
2018-12-14T13:42:10.026Z,2.60
2018-12-14T13:44:38.809Z,2.50
2018-12-14T13:47:07.300Z,2.50
2018-12-14T13:49:35.823Z,2.50
2018-12-14T13:52:04.262Z,2.60
2018-12-14T13:54:32.710Z,2.50
2018-12-14T13:57:01.175Z,2.50
2018-12-14T13:59:30.031Z,2.40
2018-12-14T14:01:58.627Z,2.50
2018-12-14T14:04:27.106Z,2.50
2018-12-14T14:06:55.579Z,2.50
2018-12-14T14:09:24.495Z,2.50
2018-12-14T14:11:52.966Z,2.50
2018-12-14T14:14:21.455Z,2.50
2018-12-14T14:16:51.193Z,2.50
2018-12-14T14:19:20.085Z,2.60
2018-12-14T14:21:48.569Z,2.50
2018-12-14T14:24:17.448Z,2.40
2018-12-14T14:26:45.900Z,2.40
2018-12-14T14:29:14.369Z,2.40
2018-12-14T14:31:42.813Z,2.40
2018-12-14T14:34:11.369Z,2.40
2018-12-14T14:36:39.889Z,2.40
2018-12-14T14:39:08.409Z,2.40
2018-12-14T14:41:36.887Z,2.40
2018-12-14T14:44:05.500Z,2.30
2018-12-14T14:46:34.177Z,2.40
2018-12-14T14:49:02.823Z,2.40
2018-12-14T14:51:31.648Z,2.40
2018-12-14T14:54:00.318Z,2.40
2018-12-14T14:56:29.064Z,2.30
2018-12-14T14:58:57.493Z,2.40
2018-12-14T15:01:26.558Z,2.40
2018-12-14T15:03:54.983Z,2.50
2018-12-14T15:06:23.427Z,2.40
2018-12-14T15:08:52.483Z,2.40
2018-12-14T15:11:21.071Z,2.40
2018-12-14T15:13:49.565Z,2.40
2018-12-14T15:16:18.178Z,2.30
2018-12-14T15:18:46.708Z,2.40
2018-12-14T15:21:15.197Z,2.40
2018-12-14T15:23:43.844Z,2.40
2018-12-14T15:26:12.275Z,2.40
2018-12-14T15:28:40.807Z,2.30
2018-12-14T15:31:09.284Z,2.30
2018-12-14T15:33:37.865Z,2.30
2018-12-14T15:36:06.404Z,2.40
2018-12-14T15:38:34.986Z,2.30
2018-12-14T15:41:03.561Z,2.30
2018-12-14T15:43:32.099Z,2.30
2018-12-14T15:46:00.587Z,2.30
2018-12-14T15:48:29.109Z,2.30
2018-12-14T15:50:57.746Z,2.30
2018-12-14T15:53:26.258Z,2.40
2018-12-14T15:55:54.724Z,2.40
2018-12-14T15:58:23.254Z,2.30
2018-12-14T16:00:51.856Z,2.30
2018-12-14T16:03:20.314Z,2.30
2018-12-14T16:05:48.930Z,2.30
2018-12-14T16:08:17.476Z,2.30
2018-12-14T16:10:45.952Z,2.40
2018-12-14T16:13:14.386Z,2.40
2018-12-14T16:15:42.983Z,2.30
2018-12-14T16:18:11.461Z,2.30
2018-12-14T16:20:39.989Z,2.30
2018-12-14T16:23:08.552Z,2.30
2018-12-14T16:25:37.305Z,2.30
2018-12-14T16:28:05.822Z,2.30
2018-12-14T16:30:34.335Z,2.30
2018-12-14T16:33:02.842Z,2.50
2018-12-14T16:35:31.331Z,2.50
2018-12-14T16:37:59.826Z,2.50
2018-12-14T16:40:28.346Z,2.50
2018-12-14T16:42:56.801Z,2.40
2018-12-14T16:45:26.578Z,2.40
2018-12-14T16:47:55.314Z,2.40
2018-12-14T16:50:23.767Z,2.40
2018-12-14T16:52:52.337Z,2.50
2018-12-14T16:55:20.743Z,2.60
2018-12-14T16:57:49.868Z,2.60
2018-12-14T17:00:18.517Z,2.70
2018-12-14T17:02:47.026Z,2.70
2018-12-14T17:05:15.588Z,2.70
2018-12-14T17:07:44.088Z,2.70
2018-12-14T17:10:12.496Z,2.60
2018-12-14T17:12:41.026Z,2.60
2018-12-14T17:15:09.486Z,2.60
2018-12-14T17:17:37.922Z,2.40
2018-12-14T17:20:06.460Z,2.40
2018-12-14T17:22:34.932Z,2.40
2018-12-14T17:25:03.513Z,2.40
2018-12-14T17:27:32.032Z,2.30
2018-12-14T17:30:00.549Z,2.40
2018-12-14T17:32:29.038Z,2.30
2018-12-14T17:34:57.472Z,2.40
2018-12-14T17:37:25.951Z,2.40
2018-12-14T17:39:54.407Z,2.40
2018-12-14T17:42:22.919Z,2.40
2018-12-14T17:44:51.395Z,2.30
2018-12-14T17:47:19.916Z,2.40
2018-12-14T17:49:48.379Z,2.30
2018-12-14T17:52:16.899Z,2.30
2018-12-14T17:54:46.006Z,2.30
2018-12-14T17:57:14.607Z,2.30
2018-12-14T17:59:43.291Z,2.30
2018-12-14T18:02:11.835Z,2.40
2018-12-14T18:04:40.394Z,2.40
2018-12-14T18:07:08.918Z,2.40
2018-12-14T18:09:39.119Z,2.30
2018-12-14T18:12:07.626Z,2.30
2018-12-14T18:14:36.262Z,2.30
2018-12-14T18:17:04.780Z,2.30
2018-12-14T18:19:33.262Z,2.30
2018-12-14T18:22:01.724Z,2.30
2018-12-14T18:24:30.162Z,2.30
2018-12-14T18:26:58.736Z,2.30
2018-12-14T18:29:28.474Z,2.30
2018-12-14T18:31:56.942Z,2.40
2018-12-14T18:34:25.529Z,2.50
2018-12-14T18:36:53.968Z,2.50
2018-12-14T18:39:22.980Z,2.50
2018-12-14T18:41:52.601Z,2.60
2018-12-14T18:44:21.110Z,2.60
2018-12-14T18:46:49.616Z,2.50
2018-12-14T18:49:18.279Z,2.40
2018-12-14T18:51:46.681Z,2.30
2018-12-14T18:54:15.144Z,2.30
2018-12-14T18:56:43.565Z,2.40
2018-12-14T18:59:12.311Z,2.40
2018-12-14T19:01:40.721Z,2.50
2018-12-14T19:04:09.173Z,2.50
2018-12-14T19:06:37.605Z,2.40
2018-12-14T19:09:07.105Z,2.30
2018-12-14T19:11:35.594Z,2.40
2018-12-14T19:14:04.038Z,2.50
2018-12-14T19:16:32.502Z,2.50
2018-12-14T19:19:01.443Z,2.40
2018-12-14T19:21:29.872Z,2.50
2018-12-14T19:23:58.450Z,2.50
2018-12-14T19:26:26.894Z,2.40
2018-12-14T19:28:55.340Z,2.30
2018-12-14T19:31:23.799Z,2.40
2018-12-14T19:33:52.636Z,2.40
2018-12-14T19:36:21.072Z,2.50
2018-12-14T19:38:49.550Z,2.50
2018-12-14T19:41:18.048Z,2.50
2018-12-14T19:43:46.491Z,2.40
2018-12-14T19:46:15.204Z,2.50
2018-12-14T19:48:44.644Z,2.50
2018-12-14T19:51:13.206Z,2.50
2018-12-14T19:53:41.736Z,2.60
2018-12-14T19:56:10.272Z,2.60
2018-12-14T19:58:38.840Z,2.70
2018-12-14T20:01:07.546Z,2.70
2018-12-14T20:03:36.159Z,2.70
2018-12-14T20:06:04.579Z,2.70
2018-12-14T20:08:33.020Z,2.70
2018-12-14T20:11:01.455Z,2.60
2018-12-14T20:13:29.909Z,2.60
2018-12-14T20:15:58.346Z,2.50
2018-12-14T20:18:26.797Z,2.40
2018-12-14T20:20:57.113Z,2.40
2018-12-14T20:23:25.716Z,2.40
2018-12-14T20:25:54.425Z,2.30
2018-12-14T20:28:22.886Z,2.30
2018-12-14T20:30:51.693Z,2.30
2018-12-14T20:33:20.587Z,2.30
2018-12-14T20:35:49.021Z,2.20
2018-12-14T20:38:17.670Z,2.20
2018-12-14T20:40:46.234Z,2.20
2018-12-14T20:43:14.871Z,2.20
2018-12-14T20:45:43.386Z,2.20
2018-12-14T20:48:12.311Z,2.20
2018-12-14T20:50:40.767Z,2.20
2018-12-14T20:53:09.251Z,2.20
2018-12-14T20:55:39.173Z,2.20
2018-12-14T20:58:07.952Z,2.30
2018-12-14T21:00:36.485Z,2.30
2018-12-14T21:03:04.931Z,2.20
2018-12-14T21:05:33.444Z,2.20
2018-12-14T21:08:01.928Z,2.10
2018-12-14T21:10:30.580Z,2.10
2018-12-14T21:12:59.119Z,2.10
2018-12-14T21:15:28.197Z,2.10
2018-12-14T21:17:56.723Z,2.10
2018-12-14T21:20:25.213Z,2.10
2018-12-14T21:22:53.674Z,2.10
2018-12-14T21:25:22.204Z,2.10
2018-12-14T21:27:50.649Z,2.20
2018-12-14T21:30:19.350Z,2.20
2018-12-14T21:32:47.982Z,2.20
2018-12-14T21:35:16.386Z,2.30
2018-12-14T21:37:45.420Z,2.30
2018-12-14T21:40:13.910Z,2.20
2018-12-14T21:42:42.801Z,2.10
2018-12-14T21:45:11.323Z,2.10
2018-12-14T21:47:40.036Z,2.10
2018-12-14T21:50:09.477Z,2.10
2018-12-14T21:52:38.082Z,2.10
2018-12-14T21:55:06.911Z,2.10
2018-12-14T21:57:35.561Z,2.10
2018-12-14T22:00:05.424Z,2.10
2018-12-14T22:02:34.301Z,2.00
2018-12-14T22:05:02.983Z,2.00
2018-12-14T22:07:32.932Z,2.00
2018-12-14T22:10:01.488Z,2.00
2018-12-14T22:12:29.893Z,2.00
2018-12-14T22:14:58.353Z,2.00
2018-12-14T22:17:26.769Z,2.00
2018-12-14T22:19:55.411Z,2.10
2018-12-14T22:22:23.931Z,2.10
2018-12-14T22:24:52.421Z,2.10
2018-12-14T22:27:20.887Z,2.20
2018-12-14T22:29:49.797Z,2.20
2018-12-14T22:32:18.174Z,2.10
2018-12-14T22:34:47.158Z,2.20
2018-12-14T22:37:15.573Z,2.20
2018-12-14T22:39:44.330Z,2.20
2018-12-14T22:42:12.748Z,2.20
2018-12-14T22:44:41.425Z,2.30
2018-12-14T22:47:09.841Z,2.20
2018-12-14T22:49:38.286Z,2.20
2018-12-14T22:52:06.919Z,2.10
2018-12-14T22:54:35.324Z,2.00
2018-12-14T22:57:03.754Z,2.00
2018-12-14T22:59:32.183Z,2.00
2018-12-14T23:02:00.639Z,2.10
2018-12-14T23:04:29.060Z,2.10
2018-12-14T23:06:57.508Z,2.20
2018-12-14T23:09:25.971Z,2.10
2018-12-14T23:11:54.524Z,2.10
2018-12-14T23:14:22.984Z,2.10
2018-12-14T23:16:52.467Z,2.10
2018-12-14T23:19:21.184Z,2.10
2018-12-14T23:21:49.821Z,2.20
2018-12-14T23:24:18.218Z,2.10
2018-12-14T23:26:46.682Z,2.10
2018-12-14T23:29:15.146Z,2.00
2018-12-14T23:31:43.534Z,1.90
2018-12-14T23:34:12.192Z,2.00
2018-12-14T23:36:40.636Z,2.10
2018-12-14T23:39:09.016Z,2.10
2018-12-14T23:41:37.464Z,2.10
2018-12-14T23:44:05.900Z,2.00
2018-12-14T23:46:34.318Z,2.10
2018-12-14T23:49:02.763Z,2.10
2018-12-14T23:51:31.174Z,2.20
2018-12-14T23:53:59.714Z,2.10
2018-12-14T23:56:28.163Z,2.00
2018-12-14T23:58:56.561Z,2.10
